Time;durP1;ratioP1;P1;durP2;ratioP2;P2;SDS_P1;SDS_P2;PMS_P1;PMS_P2;Temp;Humidity;BMP_temperature;BMP_pressure;BME280_temperature;BME280_humidity;BME280_pressure;Samples;Min_cycle;Max_cycle;Signal;HPM_P1;HPM_P2
2023/03/28 00:02:08;;;;;;;10.90;2.70;;;;;;;1.88;90.69;101389.50;105707;1255;74743;-70
2023/03/28 00:04:36;;;;;;;15.30;3.30;;;;;;;1.88;90.32;101389.64;105842;1257;61343;-70
2023/03/28 00:07:02;;;;;;;12.50;2.90;;;;;;;1.89;90.07;101404.38;105741;1257;72795;-72
2023/03/28 00:09:30;;;;;;;13.00;2.60;;;;;;;1.91;88.56;101398.70;105834;1257;61692;-71
2023/03/28 00:11:57;;;;;;;11.10;2.90;;;;;;;1.94;88.74;101389.90;106194;1257;61241;-74
2023/03/28 00:14:23;;;;;;;15.00;3.60;;;;;;;1.97;89.10;101388.15;105823;1254;72532;-72
2023/03/28 00:16:52;;;;;;;14.20;3.20;;;;;;;2.00;89.40;101393.01;105795;1254;69434;-71
2023/03/28 00:19:20;;;;;;;10.20;2.40;;;;;;;2.00;89.57;101396.02;105801;1255;72641;-72
2023/03/28 00:21:50;;;;;;;13.30;2.70;;;;;;;1.98;88.76;101396.85;105802;1254;61535;-72
2023/03/28 00:24:20;;;;;;;8.30;1.90;;;;;;;1.95;88.44;101395.25;105895;1257;61241;-70
2023/03/28 00:26:53;;;;;;;8.90;1.80;;;;;;;1.93;88.50;101397.13;105533;1254;73196;-71
2023/03/28 00:29:21;;;;;;;12.90;2.50;;;;;;;1.87;88.31;101407.84;105892;1254;70153;-69
2023/03/28 00:31:49;;;;;;;8.70;1.90;;;;;;;1.80;87.86;101408.80;106036;1257;72547;-70
2023/03/28 00:34:16;;;;;;;11.20;2.10;;;;;;;1.75;87.84;101419.29;105731;1254;62848;-69
2023/03/28 00:36:43;;;;;;;7.40;1.30;;;;;;;1.72;87.98;101426.30;105814;1254;61357;-73
2023/03/28 00:39:10;;;;;;;8.80;2.50;;;;;;;1.65;88.12;101423.25;105701;1257;74536;-72
2023/03/28 00:41:41;;;;;;;12.10;2.40;;;;;;;1.65;88.42;101418.88;105636;1261;70913;-72
2023/03/28 00:44:45;;;;;;;9.00;2.00;;;;;;;1.62;88.52;101421.50;105892;1254;71679;-71
2023/03/28 00:47:26;;;;;;;13.70;2.70;;;;;;;1.59;88.76;101420.77;105737;1254;61369;-69
2023/03/28 00:50:02;;;;;;;8.20;2.10;;;;;;;1.55;89.11;101428.73;106283;1254;61236;-73
2023/03/28 00:52:36;;;;;;;12.40;2.30;;;;;;;1.56;88.77;101431.65;105672;1254;73537;-70
2023/03/28 00:55:04;;;;;;;9.50;1.80;;;;;;;1.53;88.96;101427.48;105750;1257;69481;-71
2023/03/28 00:57:32;;;;;;;8.60;2.40;;;;;;;1.51;88.95;101427.92;105749;1253;71280;-69
2023/03/28 00:59:59;;;;;;;9.20;2.10;;;;;;;1.52;89.13;101431.02;105523;1253;61353;-69
2023/03/28 01:02:26;;;;;;;8.00;1.70;;;;;;;1.51;89.46;101438.73;105870;1257;61603;-70
2023/03/28 01:05:00;;;;;;;16.10;2.80;;;;;;;1.53;89.86;101450.66;105674;1260;74700;-72
2023/03/28 01:07:34;;;;;;;8.10;2.00;;;;;;;1.57;90.12;101448.48;105788;1254;71352;-69
2023/03/28 01:10:04;;;;;;;14.10;2.70;;;;;;;1.60;90.22;101445.33;106278;1254;72848;-71
2023/03/28 01:12:32;;;;;;;9.60;2.60;;;;;;;1.63;90.52;101444.27;105854;1253;61272;-70
2023/03/28 01:15:00;;;;;;;8.60;2.00;;;;;;;1.67;90.60;101445.44;105800;1257;61254;-70
2023/03/28 01:17:29;;;;;;;10.70;2.40;;;;;;;1.68;90.24;101451.85;105972;1254;73573;-71
2023/03/28 01:20:12;;;;;;;12.00;2.00;;;;;;;1.68;90.46;101445.69;105584;1254;69996;-71
2023/03/28 01:22:51;;;;;;;9.50;2.10;;;;;;;1.68;90.65;101458.80;105735;1257;72849;-71
2023/03/28 01:25:51;;;;;;;6.90;1.80;;;;;;;1.69;90.78;101460.84;105673;1254;61352;-69
2023/03/28 01:29:07;;;;;;;8.10;1.90;;;;;;;1.68;91.36;101455.47;106330;1254;61207;-70
2023/03/28 01:32:27;;;;;;;12.50;2.90;;;;;;;1.62;92.48;101460.56;105679;1255;73783;-71
2023/03/28 01:35:06;;;;;;;11.60;2.20;;;;;;;1.53;93.45;101456.06;105210;1262;69628;-71
2023/03/28 01:37:33;;;;;;;7.80;2.10;;;;;;;1.50;93.65;101469.89;105158;1265;71541;-72
2023/03/28 01:40:16;;;;;;;10.10;2.00;;;;;;;1.49;93.98;101467.52;105439;1256;61285;-70
2023/03/28 01:42:51;;;;;;;10.30;2.10;;;;;;;1.47;94.23;101480.50;105740;1254;61148;-72
2023/03/28 01:45:24;;;;;;;8.10;2.00;;;;;;;1.42;94.95;101476.81;106297;1257;73523;-70
2023/03/28 01:48:21;;;;;;;9.50;2.20;;;;;;;1.41;95.13;101471.80;105971;1253;70073;-70
2023/03/28 01:51:03;;;;;;;8.80;1.80;;;;;;;1.42;95.16;101466.02;105765;1254;72400;-70
2023/03/28 01:53:55;;;;;;;11.20;2.40;;;;;;;1.38;95.39;101475.67;105785;1254;61837;-70
2023/03/28 01:56:29;;;;;;;8.90;1.90;;;;;;;1.35;94.64;101480.72;105725;1254;62843;-69
2023/03/28 01:59:06;;;;;;;9.40;2.30;;;;;;;1.32;94.36;101476.20;105862;1256;74422;-74
2023/03/28 02:01:44;;;;;;;10.30;2.70;;;;;;;1.29;94.52;101478.48;105689;1253;71195;-71
2023/03/28 02:04:19;;;;;;;6.80;2.50;;;;;;;1.26;94.69;101480.80;105963;1256;71603;-71
2023/03/28 02:06:49;;;;;;;12.30;2.50;;;;;;;1.22;94.65;101483.09;105543;1254;62058;-70
2023/03/28 02:09:20;;;;;;;10.70;2.20;;;;;;;1.21;94.55;101476.23;105641;1254;61631;-71
2023/03/28 02:11:55;;;;;;;6.20;1.60;;;;;;;1.17;94.44;101481.27;105624;1260;74495;-70
2023/03/28 02:14:26;;;;;;;14.10;2.60;;;;;;;1.15;94.68;101485.63;105819;1260;70182;-69
2023/03/28 02:16:59;;;;;;;11.10;2.00;;;;;;;1.15;94.68;101487.39;105880;1254;72008;-71
2023/03/28 02:19:28;;;;;;;8.70;2.10;;;;;;;1.15;94.88;101486.13;105760;1253;61213;-71
2023/03/28 02:22:13;;;;;;;10.80;2.30;;;;;;;1.19;95.01;101480.32;105848;1254;61324;-72
2023/03/28 02:24:41;;;;;;;11.00;2.40;;;;;;;1.23;94.64;101481.66;105803;1258;76015;-69
2023/03/28 02:27:08;;;;;;;7.70;2.00;;;;;;;1.23;94.55;101482.72;105756;1253;71815;-69
2023/03/28 02:29:37;;;;;;;12.00;2.40;;;;;;;1.21;94.42;101483.16;105870;1254;71471;-71
2023/03/28 02:32:04;;;;;;;12.50;2.30;;;;;;;1.21;94.36;101482.77;105634;1254;61931;-70
2023/03/28 02:34:31;;;;;;;12.40;2.50;;;;;;;1.20;94.33;101483.58;105723;1254;61230;-73
2023/03/28 02:37:15;;;;;;;10.40;2.20;;;;;;;1.18;94.52;101493.47;105725;1252;61172;-73
2023/03/28 02:39:50;;;;;;;8.00;2.60;;;;;;;1.16;94.79;101492.34;106113;1254;69904;-71
2023/03/28 02:43:08;;;;;;;10.60;3.10;;;;;;;1.17;94.81;101493.34;105839;1253;72471;-69
2023/03/28 02:46:16;;;;;;;13.20;2.50;;;;;;;1.20;94.85;101494.16;105642;1253;61382;-70
2023/03/28 02:49:02;;;;;;;9.90;2.30;;;;;;;1.19;94.94;101491.08;105963;1257;61187;-71
2023/03/28 02:52:08;;;;;;;11.70;2.20;;;;;;;1.20;94.75;101498.90;105771;1254;74130;-70
2023/03/28 02:54:51;;;;;;;9.40;2.60;;;;;;;1.19;94.76;101500.83;106199;1257;69945;-70
2023/03/28 02:57:27;;;;;;;11.60;1.90;;;;;;;1.19;94.43;101500.32;105952;1252;72796;-71
2023/03/28 03:00:08;;;;;;;9.10;1.90;;;;;;;1.18;94.52;101500.05;105914;1252;61387;-70
2023/03/28 03:02:39;;;;;;;7.40;1.90;;;;;;;1.19;94.73;101502.08;105875;1257;61764;-70
2023/03/28 03:05:08;;;;;;;9.80;2.40;;;;;;;1.21;94.87;101508.95;105840;1257;74696;-71
2023/03/28 03:07:36;;;;;;;10.50;1.60;;;;;;;1.24;94.86;101523.39;105839;1254;70964;-70
2023/03/28 03:10:06;;;;;;;12.60;2.40;;;;;;;1.29;95.02;101531.69;105836;1255;72783;-72
2023/03/28 03:12:33;;;;;;;8.00;1.70;;;;;;;1.32;95.10;101537.92;105886;1258;61273;-69
2023/03/28 03:15:00;;;;;;;9.60;2.40;;;;;;;1.25;95.54;101538.86;106450;1253;60138;-69
2023/03/28 03:17:27;;;;;;;8.70;1.90;;;;;;;1.16;95.86;101537.13;105761;1258;75130;-69
2023/03/28 03:19:54;;;;;;;12.80;3.30;;;;;;;1.04;96.97;101546.77;106008;1254;71082;-68
2023/03/28 03:22:22;;;;;;;11.40;3.90;;;;;;;0.97;97.99;101528.90;106161;1253;72682;-68
2023/03/28 03:24:53;;;;;;;13.60;3.20;;;;;;;0.94;98.30;101534.47;106008;1258;61183;-68
2023/03/28 03:27:20;;;;;;;13.10;3.20;;;;;;;0.93;98.46;101535.36;105930;1254;61360;-68
2023/03/28 03:29:47;;;;;;;14.90;3.20;;;;;;;0.95;98.41;101530.52;106066;1253;73326;-68
2023/03/28 03:32:14;;;;;;;12.60;2.80;;;;;;;0.98;98.72;101544.81;106069;1254;70022;-67
2023/03/28 03:34:41;;;;;;;11.60;3.10;;;;;;;1.00;99.06;101545.10;106252;1254;72486;-67
2023/03/28 03:37:10;;;;;;;14.50;3.70;;;;;;;1.03;99.13;101539.84;105858;1254;61401;-67
2023/03/28 03:39:37;;;;;;;13.40;2.70;;;;;;;1.07;99.07;101544.95;105918;1253;61264;-66
2023/03/28 03:42:04;;;;;;;11.60;2.30;;;;;;;1.11;98.68;101546.65;105891;1259;73701;-69
2023/03/28 03:44:31;;;;;;;11.00;2.20;;;;;;;1.15;98.51;101553.89;106099;1254;71080;-68
2023/03/28 03:46:57;;;;;;;12.70;2.70;;;;;;;1.20;98.05;101557.24;106021;1253;72629;-69
2023/03/28 03:49:24;;;;;;;22.70;4.00;;;;;;;1.23;97.91;101560.55;106035;1254;61370;-69
2023/03/28 03:51:51;;;;;;;14.90;3.30;;;;;;;1.27;98.04;101557.70;106201;1252;61137;-68
2023/03/28 03:54:18;;;;;;;13.30;3.40;;;;;;;1.31;97.33;101559.37;106021;1254;74631;-69
2023/03/28 03:56:45;;;;;;;11.80;2.30;;;;;;;1.33;97.11;101555.10;106021;1253;71412;-69
2023/03/28 03:59:12;;;;;;;10.00;2.40;;;;;;;1.35;96.85;101553.42;105994;1253;72771;-68
2023/03/28 04:01:40;;;;;;;9.30;1.90;;;;;;;1.33;96.54;101552.48;105960;1257;61341;-70
2023/03/28 04:04:07;;;;;;;9.30;2.20;;;;;;;1.31;96.69;101548.64;105992;1257;62200;-68
2023/03/28 04:06:33;;;;;;;9.60;2.70;;;;;;;1.29;96.49;101545.97;105857;1257;75111;-69
2023/03/28 04:09:00;;;;;;;10.40;2.70;;;;;;;1.22;96.60;101551.56;105732;1253;69115;-70
2023/03/28 04:11:27;;;;;;;16.30;2.40;;;;;;;1.17;96.89;101555.69;106481;1253;71767;-70
2023/03/28 04:13:54;;;;;;;10.30;2.50;;;;;;;1.16;96.85;101553.00;105935;1253;61434;-70
2023/03/28 04:16:22;;;;;;;10.10;2.30;;;;;;;1.11;96.74;101550.33;105820;1259;61274;-69
2023/03/28 04:18:49;;;;;;;10.40;1.90;;;;;;;1.07;96.87;101552.29;105997;1254;74141;-69
2023/03/28 04:21:24;;;;;;;13.40;2.90;;;;;;;1.04;97.02;101559.09;105953;1258;71194;-69
2023/03/28 04:23:51;;;;;;;9.50;2.30;;;;;;;1.01;97.14;101559.85;105950;1254;72760;-70
2023/03/28 04:26:24;;;;;;;15.60;2.40;;;;;;;0.97;97.21;101560.58;105964;1254;61728;-72
2023/03/28 04:28:53;;;;;;;14.30;3.40;;;;;;;0.94;97.15;101560.59;106245;1252;61218;-68
2023/03/28 04:31:27;;;;;;;10.80;2.40;;;;;;;0.90;97.43;101562.39;106364;1258;73149;-70
2023/03/28 04:33:55;;;;;;;10.90;2.30;;;;;;;0.85;97.85;101568.77;105864;1256;69631;-69
2023/03/28 04:36:24;;;;;;;11.50;2.50;;;;;;;0.82;98.04;101569.80;105619;1254;71492;-68
2023/03/28 04:38:51;;;;;;;12.10;2.40;;;;;;;0.80;97.97;101572.52;105660;1254;61242;-69
2023/03/28 04:41:18;;;;;;;10.30;2.10;;;;;;;0.79;97.87;101573.61;105805;1254;61352;-68
2023/03/28 04:43:45;;;;;;;8.60;2.00;;;;;;;0.74;98.21;101576.70;105879;1252;75931;-70
2023/03/28 04:46:11;;;;;;;13.40;2.50;;;;;;;0.73;97.91;101582.02;105993;1257;69684;-69
2023/03/28 04:48:38;;;;;;;11.60;2.40;;;;;;;0.71;98.02;101577.27;105841;1254;72694;-70
2023/03/28 04:51:05;;;;;;;11.80;2.50;;;;;;;0.68;98.04;101581.92;105687;1254;61365;-70
2023/03/28 04:53:32;;;;;;;11.40;2.70;;;;;;;0.66;98.26;101587.46;105641;1256;62208;-70
2023/03/28 04:55:59;;;;;;;11.30;1.90;;;;;;;0.63;98.75;101590.96;105808;1254;74838;-69
2023/03/28 04:58:26;;;;;;;11.30;2.20;;;;;;;0.63;98.83;101590.96;105796;1254;70161;-69
2023/03/28 05:00:52;;;;;;;14.50;2.60;;;;;;;0.64;98.59;101594.56;105704;1253;61363;-70
2023/03/28 05:03:22;;;;;;;12.90;2.60;;;;;;;0.64;98.72;101596.31;105795;1254;61395;-69
2023/03/28 05:05:51;;;;;;;14.30;2.60;;;;;;;0.64;98.49;101599.23;106453;1257;61215;-69
2023/03/28 05:08:24;;;;;;;13.70;2.70;;;;;;;0.64;98.29;101599.25;105892;1253;74755;-69
2023/03/28 05:10:51;;;;;;;11.80;2.10;;;;;;;0.65;98.30;101604.91;105610;1259;70030;-69
2023/03/28 05:13:20;;;;;;;8.30;2.10;;;;;;;0.63;98.47;101611.49;105686;1258;74354;-69
2023/03/28 05:15:47;;;;;;;9.80;1.90;;;;;;;0.63;98.56;101616.36;105817;1253;61228;-74
2023/03/28 05:18:14;;;;;;;12.90;2.80;;;;;;;0.65;98.63;101620.05;105776;1254;61890;-71
2023/03/28 05:20:41;;;;;;;14.90;2.90;;;;;;;0.70;98.58;101626.93;106106;1254;73251;-69
2023/03/28 05:23:09;;;;;;;13.60;2.60;;;;;;;0.72;98.90;101631.83;105838;1256;71264;-69
2023/03/28 05:25:36;;;;;;;12.00;2.80;;;;;;;0.78;98.76;101637.92;105884;1255;71963;-69
2023/03/28 05:28:03;;;;;;;10.80;2.50;;;;;;;0.82;98.60;101637.20;105881;1257;61283;-69
2023/03/28 05:30:30;;;;;;;12.40;2.60;;;;;;;0.86;98.52;101638.73;106071;1254;61319;-69
2023/03/28 05:32:58;;;;;;;11.80;2.70;;;;;;;0.89;98.09;101641.17;105648;1253;75903;-72
2023/03/28 05:35:25;;;;;;;12.40;3.10;;;;;;;0.91;97.71;101639.98;105672;1254;276105;-68
2023/03/28 05:37:55;;;;;;;13.60;2.40;;;;;;;0.94;97.58;101643.81;105662;1254;71958;-70
2023/03/28 05:40:21;;;;;;;12.20;2.50;;;;;;;0.96;97.69;101646.16;106179;1252;62353;-68
2023/03/28 05:42:48;;;;;;;11.60;2.90;;;;;;;0.97;97.23;101647.29;105889;1253;61304;-72
2023/03/28 05:45:16;;;;;;;9.80;2.00;;;;;;;0.99;96.99;101647.17;105747;1254;74490;-71
2023/03/28 05:47:43;;;;;;;10.90;2.40;;;;;;;1.00;97.14;101654.42;105810;1255;70402;-71
2023/03/28 05:50:10;;;;;;;11.00;1.90;;;;;;;1.05;96.95;101655.75;105771;1258;72755;-69
2023/03/28 05:52:37;;;;;;;9.10;1.90;;;;;;;1.09;96.65;101652.20;105762;1256;61338;-71
2023/03/28 05:55:05;;;;;;;11.30;2.40;;;;;;;1.11;96.70;101656.59;105825;1254;62849;-71
2023/03/28 05:57:32;;;;;;;15.20;2.50;;;;;;;1.14;96.65;101656.94;105881;1254;74382;-70
2023/03/28 05:59:58;;;;;;;10.00;2.60;;;;;;;1.20;96.58;101663.17;106138;1253;70020;-69
2023/03/28 06:02:28;;;;;;;12.70;2.10;;;;;;;1.30;96.57;101668.38;106213;1256;72710;-70
2023/03/28 06:04:55;;;;;;;11.50;2.30;;;;;;;1.37;96.18;101676.85;105831;1257;61137;-72
2023/03/28 06:07:22;;;;;;;11.00;2.10;;;;;;;1.45;96.10;101676.55;105447;1260;61353;-67
2023/03/28 06:10:07;;;;;;;10.60;2.40;;;;;;;1.53;95.43;101677.63;105699;1257;73576;-69
2023/03/28 06:12:34;;;;;;;8.10;2.30;;;;;;;1.62;94.93;101680.56;105897;1257;71655;-69
2023/03/28 06:15:01;;;;;;;9.30;2.00;;;;;;;1.68;94.50;101681.80;105723;1257;71551;-70
2023/03/28 06:17:28;;;;;;;9.90;2.20;;;;;;;1.71;94.03;101682.48;106207;1253;61283;-71
2023/03/28 06:19:55;;;;;;;10.50;2.50;;;;;;;1.75;93.83;101683.61;105751;1257;60360;-70
2023/03/28 06:22:22;;;;;;;9.00;1.90;;;;;;;1.76;93.50;101688.81;105854;1255;72445;-67
2023/03/28 06:24:49;;;;;;;10.70;2.00;;;;;;;1.79;93.35;101691.78;105887;1253;70357;-69
2023/03/28 06:27:15;;;;;;;9.70;2.00;;;;;;;1.77;92.65;101692.04;105733;1252;70590;-70
2023/03/28 06:29:42;;;;;;;11.80;2.20;;;;;;;1.80;92.61;101692.24;105873;1256;61170;-69
2023/03/28 06:32:11;;;;;;;11.60;2.20;;;;;;;1.80;92.41;101685.41;105777;1254;61356;-69
2023/03/28 06:34:38;;;;;;;12.80;2.40;;;;;;;1.81;92.41;101691.15;105971;1254;74756;-68
2023/03/28 06:37:05;;;;;;;11.50;2.30;;;;;;;1.79;92.36;101694.92;105735;1254;71788;-71
2023/03/28 06:39:31;;;;;;;9.40;2.10;;;;;;;1.79;91.59;101695.95;105767;1253;72407;-69
2023/03/28 06:42:01;;;;;;;12.20;2.20;;;;;;;1.82;91.86;101688.94;105751;1254;61290;-69
2023/03/28 06:44:31;;;;;;;10.10;2.10;;;;;;;1.85;91.49;101691.05;105764;1256;61268;-69
2023/03/28 06:46:58;;;;;;;9.60;1.80;;;;;;;1.89;91.32;101696.40;105812;1253;74806;-71
2023/03/28 06:49:28;;;;;;;8.80;2.00;;;;;;;1.96;91.10;101699.74;105617;1252;70869;-70
2023/03/28 06:51:54;;;;;;;9.70;2.00;;;;;;;2.04;90.81;101700.00;106140;1254;70553;-71
2023/03/28 06:54:21;;;;;;;6.90;1.90;;;;;;;2.15;90.28;101703.02;105998;1253;61547;-69
2023/03/28 06:56:48;;;;;;;7.80;1.80;;;;;;;2.28;90.02;101711.62;105860;1252;61244;-74
2023/03/28 06:59:15;;;;;;;10.80;2.90;;;;;;;2.42;89.26;101716.86;105794;1254;74760;-70
2023/03/28 07:01:42;;;;;;;11.40;2.40;;;;;;;2.51;87.98;101716.47;105663;1255;61365;-71
2023/03/28 07:04:08;;;;;;;8.20;1.80;;;;;;;2.66;88.53;101715.98;105801;1253;73747;-71
2023/03/28 07:06:35;;;;;;;11.00;2.00;;;;;;;2.77;87.11;101715.09;105771;1255;61321;-71
2023/03/28 07:09:02;;;;;;;9.70;2.10;;;;;;;2.93;86.34;101718.96;105546;1254;61262;-71
2023/03/28 07:11:32;;;;;;;10.80;2.80;;;;;;;3.08;85.43;101714.70;106462;1255;74561;-70
2023/03/28 07:13:59;;;;;;;11.10;2.40;;;;;;;3.20;84.30;101713.70;105671;1253;69687;-72
2023/03/28 07:16:25;;;;;;;8.90;2.10;;;;;;;3.33;83.95;101719.16;105805;1257;71680;-70
2023/03/28 07:18:52;;;;;;;11.20;2.20;;;;;;;3.40;82.15;101724.95;105578;1255;61748;-71
2023/03/28 07:21:19;;;;;;;10.20;1.90;;;;;;;3.53;81.76;101722.38;105815;1254;61300;-71
2023/03/28 07:23:45;;;;;;;11.50;2.30;;;;;;;3.68;81.77;101727.64;105753;1258;61314;-70
2023/03/28 07:26:14;;;;;;;9.70;2.00;;;;;;;3.86;82.35;101725.89;105642;1253;69970;-71
2023/03/28 07:28:41;;;;;;;12.50;2.40;;;;;;;4.04;81.96;101726.20;106208;1254;72848;-71
2023/03/28 07:31:08;;;;;;;10.40;2.50;;;;;;;4.13;80.37;101726.30;105738;1260;61252;-72
2023/03/28 07:33:36;;;;;;;8.00;1.50;;;;;;;4.21;79.99;101729.24;105884;1253;61258;-74
2023/03/28 07:36:13;;;;;;;12.50;2.40;;;;;;;4.20;79.31;101731.37;105926;1257;74634;-72
2023/03/28 07:38:39;;;;;;;10.70;1.80;;;;;;;4.27;79.44;101737.19;105814;1257;70357;-74
2023/03/28 07:41:07;;;;;;;11.60;2.10;;;;;;;4.25;78.39;101740.52;105838;1254;72478;-70
2023/03/28 07:43:34;;;;;;;8.80;2.00;;;;;;;4.25;78.40;101740.81;105739;1258;61185;-71
2023/03/28 07:46:05;;;;;;;9.90;2.10;;;;;;;4.25;77.83;101748.54;106433;1252;61167;-70
2023/03/28 07:48:34;;;;;;;8.00;2.00;;;;;;;4.24;77.70;101742.84;105894;1257;74474;-72
2023/03/28 07:51:02;;;;;;;9.20;2.00;;;;;;;4.26;77.62;101754.77;105983;1257;70507;-72
2023/03/28 07:53:29;;;;;;;10.50;1.80;;;;;;;4.28;77.58;101763.17;105794;1254;71268;-71
2023/03/28 07:55:56;;;;;;;9.10;2.10;;;;;;;4.30;77.16;101767.45;105824;1252;61346;-71
2023/03/28 07:58:23;;;;;;;11.40;1.70;;;;;;;4.35;77.53;101770.09;105890;1257;61235;-71
2023/03/28 08:00:50;;;;;;;10.80;2.00;;;;;;;4.30;77.31;101777.60;105826;1254;74813;-72
2023/03/28 08:03:17;;;;;;;12.00;2.50;;;;;;;4.22;77.30;101776.05;105682;1254;70421;-70
2023/03/28 08:05:50;;;;;;;11.20;2.20;;;;;;;4.19;78.13;101779.83;106323;1252;72697;-71
2023/03/28 08:08:19;;;;;;;11.70;1.90;;;;;;;4.15;78.45;101780.23;106003;1253;62235;-72
2023/03/28 08:10:49;;;;;;;8.80;2.10;;;;;;;4.06;78.44;101780.13;105907;1255;61330;-72
2023/03/28 08:13:19;;;;;;;10.00;1.90;;;;;;;4.00;79.24;101777.95;105760;1257;74395;-71
2023/03/28 08:15:56;;;;;;;11.00;2.10;;;;;;;3.99;79.44;101775.95;105740;1257;69912;-73
2023/03/28 08:18:24;;;;;;;10.00;2.40;;;;;;;4.01;79.77;101775.76;105850;1257;72383;-71
2023/03/28 08:20:58;;;;;;;10.10;2.40;;;;;;;4.07;79.01;101781.69;105813;1255;61280;-73
2023/03/28 08:23:26;;;;;;;12.60;2.40;;;;;;;4.17;78.75;101775.73;105638;1256;61305;-70
2023/03/28 08:26:04;;;;;;;9.30;1.90;;;;;;;4.25;77.85;101777.63;106154;1255;73472;-71
2023/03/28 08:28:33;;;;;;;11.00;2.40;;;;;;;4.40;77.67;101780.11;105567;1253;70029;-71
2023/03/28 08:31:01;;;;;;;9.00;2.20;;;;;;;4.50;77.16;101780.61;105672;1255;73512;-71
2023/03/28 08:33:28;;;;;;;10.40;2.40;;;;;;;4.58;75.83;101779.66;105698;1253;61657;-73
2023/03/28 08:35:55;;;;;;;9.10;2.10;;;;;;;4.64;75.64;101781.84;105825;1254;61353;-71
2023/03/28 08:38:23;;;;;;;20.60;2.90;;;;;;;4.78;75.77;101783.13;105658;1254;74488;-70
2023/03/28 08:41:21;;;;;;;9.20;2.50;;;;;;;4.92;75.66;101777.02;105909;1254;72202;-71
2023/03/28 08:44:04;;;;;;;8.50;1.80;;;;;;;5.11;75.30;101779.59;105865;1253;72099;-74
2023/03/28 08:46:32;;;;;;;9.40;2.00;;;;;;;5.23;74.49;101777.91;105888;1254;61748;-77
2023/03/28 08:49:05;;;;;;;9.20;1.70;;;;;;;5.32;73.29;101783.05;105881;1257;61595;-72
2023/03/28 08:51:55;;;;;;;14.30;2.10;;;;;;;5.48;72.74;101780.30;105735;1257;74734;-76
2023/03/28 08:54:48;;;;;;;9.40;1.90;;;;;;;5.76;72.28;101782.54;105817;1253;70964;-71
2023/03/28 08:57:24;;;;;;;12.80;2.20;;;;;;;6.12;71.91;101786.38;105835;1253;72309;-72
2023/03/28 09:00:12;;;;;;;9.30;2.10;;;;;;;6.27;69.77;101790.67;106287;1253;61667;-73
2023/03/28 09:02:39;;;;;;;6.70;1.80;;;;;;;6.24;68.77;101790.04;105897;1257;61528;-71
2023/03/28 09:05:24;;;;;;;13.50;2.40;;;;;;;6.30;69.57;101790.93;105587;1254;74721;-72
2023/03/28 09:08:03;;;;;;;7.60;1.80;;;;;;;6.45;69.66;101786.57;105594;1257;71299;-71
2023/03/28 09:10:52;;;;;;;10.70;1.90;;;;;;;6.53;67.54;101799.65;105771;1254;72342;-71
2023/03/28 09:13:24;;;;;;;8.60;1.90;;;;;;;6.52;66.01;101800.81;105569;1253;61777;-73
2023/03/28 09:16:18;;;;;;;10.40;2.00;;;;;;;6.52;66.53;101795.33;105878;1253;61857;-72
2023/03/28 09:19:06;;;;;;;7.20;1.70;;;;;;;6.53;67.00;101796.51;105953;1255;72970;-71
2023/03/28 09:21:37;;;;;;;11.60;2.20;;;;;;;6.63;66.58;101796.59;105739;1257;69733;-72
2023/03/28 09:24:25;;;;;;;6.90;1.90;;;;;;;6.74;66.66;101801.85;105795;1256;71113;-71
2023/03/28 09:27:24;;;;;;;8.20;1.80;;;;;;;6.74;65.50;101802.79;105786;1257;61833;-70
2023/03/28 09:29:55;;;;;;;11.50;2.00;;;;;;;6.75;65.79;101800.21;105803;1257;61628;-70
2023/03/28 09:32:29;;;;;;;10.70;2.00;;;;;;;6.90;66.51;101798.14;105865;1257;75842;-71
2023/03/28 09:34:57;;;;;;;10.10;2.20;;;;;;;7.01;65.49;101807.30;105780;1253;71196;-70
2023/03/28 09:37:31;;;;;;;8.00;1.60;;;;;;;6.93;64.08;101809.84;106344;1255;71487;-71
2023/03/28 09:40:14;;;;;;;7.60;1.70;;;;;;;6.86;64.43;101807.05;105784;1253;61275;-74
2023/03/28 09:43:14;;;;;;;7.70;2.20;;;;;;;6.86;64.86;101806.50;105920;1254;61261;-70
2023/03/28 09:45:52;;;;;;;10.10;1.80;;;;;;;6.65;64.34;101810.48;105827;1256;73779;-71
2023/03/28 09:48:22;;;;;;;7.70;1.50;;;;;;;6.55;65.02;101806.00;105803;1256;69848;-73
2023/03/28 09:50:51;;;;;;;6.00;1.80;;;;;;;6.40;65.02;101809.84;105826;1254;71753;-71
2023/03/28 09:53:33;;;;;;;8.00;1.70;;;;;;;6.36;64.55;101806.48;105941;1256;61355;-70
2023/03/28 09:56:04;;;;;;;8.50;1.80;;;;;;;6.41;65.78;101807.80;106101;1253;61478;-69
2023/03/28 09:58:53;;;;;;;9.70;2.50;;;;;;;6.49;65.05;101812.48;105765;1257;76210;-71
2023/03/28 10:01:30;;;;;;;6.40;1.40;;;;;;;6.58;64.72;101812.10;105592;1258;68696;-73
2023/03/28 10:03:57;;;;;;;5.90;1.50;;;;;;;6.68;64.03;101810.59;105745;1254;71973;-70
2023/03/28 10:06:27;;;;;;;9.10;1.80;;;;;;;6.68;63.57;101803.25;105702;1257;61725;-70
2023/03/28 10:09:15;;;;;;;10.10;2.20;;;;;;;6.77;62.74;101802.16;105811;1258;61228;-70
2023/03/28 10:12:09;;;;;;;7.60;1.80;;;;;;;6.86;62.79;101808.11;106507;1257;73951;-70
2023/03/28 10:14:41;;;;;;;7.90;2.30;;;;;;;7.01;63.85;101796.55;105661;1253;69658;-73
2023/03/28 10:17:16;;;;;;;10.30;1.80;;;;;;;7.11;63.26;101802.05;105764;1257;71575;-71
2023/03/28 10:19:45;;;;;;;9.70;1.90;;;;;;;7.08;62.15;101800.20;105616;1255;61356;-70
2023/03/28 10:22:24;;;;;;;8.00;1.70;;;;;;;7.15;62.81;101802.95;105936;1253;61235;-70
2023/03/28 10:24:51;;;;;;;9.10;1.80;;;;;;;7.25;60.19;101801.78;105773;1254;73474;-71
2023/03/28 10:27:30;;;;;;;7.10;1.60;;;;;;;7.20;60.69;101798.73;105853;1253;71179;-70
2023/03/28 10:30:10;;;;;;;9.20;2.00;;;;;;;7.12;60.94;101804.46;106134;1254;72815;-71
2023/03/28 10:32:36;;;;;;;6.40;1.70;;;;;;;7.09;61.33;101796.05;105859;1254;61238;-72
2023/03/28 10:35:15;;;;;;;10.20;2.20;;;;;;;6.98;61.38;101811.58;105813;1254;61845;-70
2023/03/28 10:37:45;;;;;;;9.70;2.60;;;;;;;6.96;61.86;101804.04;105823;1257;74711;-71
2023/03/28 10:40:18;;;;;;;9.70;1.90;;;;;;;7.02;61.90;101791.90;105517;1253;71502;-71
2023/03/28 10:42:49;;;;;;;9.20;2.10;;;;;;;7.09;60.98;101787.64;105759;1253;72304;-73
2023/03/28 10:45:22;;;;;;;8.00;1.80;;;;;;;7.41;61.15;101789.03;105727;1253;62062;-71
2023/03/28 10:47:52;;;;;;;11.70;1.90;;;;;;;7.62;58.54;101791.05;105970;1258;61237;-70
2023/03/28 10:50:25;;;;;;;6.70;1.90;;;;;;;7.61;58.18;101793.16;105668;1258;74379;-74
2023/03/28 10:53:04;;;;;;;9.70;2.10;;;;;;;7.52;56.20;101800.30;105799;1253;70991;-72
2023/03/28 10:55:39;;;;;;;7.90;1.40;;;;;;;7.50;56.36;101791.80;105736;1255;71255;-72
2023/03/28 10:58:27;;;;;;;9.60;1.90;;;;;;;7.47;57.17;101795.23;105800;1253;61697;-70
2023/03/28 11:01:19;;;;;;;5.90;1.30;;;;;;;7.61;56.75;101789.88;105815;1256;61324;-71
2023/03/28 11:04:05;;;;;;;5.50;1.50;;;;;;;7.87;56.18;101789.21;105768;1253;73168;-72
2023/03/28 11:06:35;;;;;;;8.80;1.60;;;;;;;8.14;54.52;101784.29;106272;1256;71176;-74
2023/03/28 11:09:24;;;;;;;7.20;1.50;;;;;;;8.32;53.71;101782.55;105874;1256;74094;-70
2023/03/28 11:12:05;;;;;;;5.40;1.50;;;;;;;8.35;51.26;101787.98;105538;1258;61287;-74
2023/03/28 11:14:50;;;;;;;8.20;1.60;;;;;;;8.27;52.03;101785.68;105760;1253;61344;-74
2023/03/28 11:17:36;;;;;;;6.10;1.60;;;;;;;8.19;52.56;101788.45;105615;1256;72667;-72
2023/03/28 11:20:23;;;;;;;6.20;1.50;;;;;;;8.22;51.09;101788.02;105788;1257;70253;-69
2023/03/28 11:23:01;;;;;;;6.10;1.70;;;;;;;8.27;51.40;101782.53;105991;1253;72691;-77
2023/03/28 11:25:45;;;;;;;8.50;1.50;;;;;;;8.36;52.38;101781.34;105683;1253;61164;-74
2023/03/28 11:28:14;;;;;;;4.80;1.10;;;;;;;8.34;50.21;101780.98;105800;1254;61891;-74
2023/03/28 11:30:46;;;;;;;6.40;1.40;;;;;;;8.21;48.42;101788.46;105630;1256;74527;-73
2023/03/28 11:34:10;;;;;;;7.50;1.60;;;;;;;8.06;49.86;101784.66;105861;1253;70165;-72
2023/03/28 11:36:49;;;;;;;8.50;1.70;;;;;;;7.83;51.28;101786.98;105369;1259;72979;-71
2023/03/28 11:39:25;;;;;;;7.30;1.60;;;;;;;7.91;52.33;101785.09;105863;1259;61943;-72
2023/03/28 11:41:55;;;;;;;5.80;1.30;;;;;;;8.04;51.40;101782.51;106047;1256;59996;-70
2023/03/28 11:44:28;;;;;;;6.50;1.60;;;;;;;8.23;49.75;101779.88;106058;1257;74388;-70
2023/03/28 11:46:58;;;;;;;6.00;1.20;;;;;;;8.53;48.03;101774.94;105648;1260;70366;-71
2023/03/28 11:49:44;;;;;;;6.50;1.70;;;;;;;8.84;47.43;101767.94;105653;1258;72540;-71